Time;durP1;ratioP1;P1;durP2;ratioP2;P2;SDS_P1;SDS_P2;PMS_P1;PMS_P2;Temp;Humidity;BMP_temperature;BMP_pressure;BME280_temperature;BME280_humidity;BME280_pressure;Samples;Min_cycle;Max_cycle;Signal;HPM_P1;HPM_P2
2024/01/02 00:02:14;;;;;;;17.90;6.70;;;;;;;5.08;81.37;98338.61;105343;1257;109509;-69
2024/01/02 00:04:43;;;;;;;20.00;7.40;;;;;;;5.08;81.27;98340.55;104926;1267;96626;-68
2024/01/02 00:07:10;;;;;;;22.60;6.60;;;;;;;5.08;81.14;98340.54;105280;1259;107887;-69
2024/01/02 00:09:38;;;;;;;20.60;7.40;;;;;;;5.09;81.31;98341.89;104919;1258;97426;-69
2024/01/02 00:12:07;;;;;;;19.60;7.60;;;;;;;5.10;81.25;98337.25;105453;1258;96632;-68
2024/01/02 00:14:35;;;;;;;20.90;6.60;;;;;;;5.10;81.14;98341.45;105258;1258;110450;-70
2024/01/02 00:17:04;;;;;;;19.80;6.40;;;;;;;5.08;81.28;98338.92;104723;1259;97452;-69
2024/01/02 00:19:32;;;;;;;19.80;6.60;;;;;;;5.09;81.07;98338.02;105429;1259;106378;-69
2024/01/02 00:21:59;;;;;;;19.00;6.40;;;;;;;5.09;81.13;98335.02;105493;1259;97522;-70
2024/01/02 00:24:27;;;;;;;18.80;6.80;;;;;;;5.09;81.12;98336.56;105598;1258;96594;-68
2024/01/02 00:26:55;;;;;;;18.00;6.20;;;;;;;5.10;81.14;98337.23;104971;1257;110561;-68
2024/01/02 00:29:23;;;;;;;19.00;6.10;;;;;;;5.10;81.10;98334.62;105274;1253;96622;-69
2024/01/02 00:31:51;;;;;;;19.00;6.10;;;;;;;5.10;81.00;98337.25;105465;1259;107250;-70
2024/01/02 00:34:18;;;;;;;19.20;6.50;;;;;;;5.10;81.01;98339.18;105135;1259;96637;-69
2024/01/02 00:36:46;;;;;;;19.10;6.50;;;;;;;5.10;81.06;98334.06;105375;1259;98066;-69
2024/01/02 00:39:15;;;;;;;20.00;5.70;;;;;;;5.09;80.94;98335.88;105274;1258;108968;-69
2024/01/02 00:41:43;;;;;;;16.60;5.80;;;;;;;5.10;81.05;98337.09;105471;1260;96718;-69
2024/01/02 00:44:11;;;;;;;17.60;5.80;;;;;;;5.10;80.82;98343.03;105238;1269;107313;-69
2024/01/02 00:46:39;;;;;;;15.40;5.40;;;;;;;5.11;80.92;98341.20;105088;1258;96656;-68
2024/01/02 00:49:07;;;;;;;15.60;5.50;;;;;;;5.13;80.86;98343.23;105187;1267;96689;-69
2024/01/02 00:51:35;;;;;;;21.80;6.90;;;;;;;5.12;80.93;98344.47;105347;1259;109558;-69
2024/01/02 00:54:02;;;;;;;19.90;5.60;;;;;;;5.12;80.87;98343.24;104665;1267;97989;-69
2024/01/02 00:56:30;;;;;;;17.20;5.20;;;;;;;5.13;80.82;98343.76;104691;1272;107888;-67
2024/01/02 00:58:58;;;;;;;17.10;5.40;;;;;;;5.13;80.76;98344.61;104903;1267;97938;-69
2024/01/02 01:01:26;;;;;;;19.30;5.90;;;;;;;5.14;80.80;98341.55;105480;1259;97999;-69
2024/01/02 01:03:55;;;;;;;20.60;6.40;;;;;;;5.14;80.69;98344.70;105356;1258;109698;-68
2024/01/02 01:06:23;;;;;;;15.60;5.50;;;;;;;5.14;80.60;98347.35;105313;1270;96731;-69
2024/01/02 01:08:51;;;;;;;14.00;5.00;;;;;;;5.14;80.69;98346.98;105478;1260;107565;-70
2024/01/02 01:11:20;;;;;;;19.80;6.10;;;;;;;5.14;80.57;98348.94;104908;1259;96618;-68
2024/01/02 01:13:48;;;;;;;18.40;5.50;;;;;;;5.15;80.47;98346.79;107620;1257;96604;-69
2024/01/02 01:16:16;;;;;;;16.80;5.90;;;;;;;5.16;80.41;98347.24;105501;1259;109004;-69
2024/01/02 01:18:43;;;;;;;17.90;5.40;;;;;;;5.15;80.44;98351.50;105376;1259;96622;-69
2024/01/02 01:21:11;;;;;;;17.00;5.60;;;;;;;5.15;80.37;98348.69;105127;1259;107397;-68
2024/01/02 01:23:39;;;;;;;15.10;5.40;;;;;;;5.16;80.54;98348.64;105387;1259;96671;-69
2024/01/02 01:26:07;;;;;;;21.10;5.90;;;;;;;5.16;80.42;98349.48;105084;1267;96668;-69
2024/01/02 01:28:35;;;;;;;18.50;6.10;;;;;;;5.17;80.12;98348.57;105483;1260;109454;-70
2024/01/02 01:31:03;;;;;;;16.20;5.00;;;;;;;5.17;80.58;98343.30;104552;1259;96615;-69
2024/01/02 01:33:30;;;;;;;18.90;5.80;;;;;;;5.17;80.35;98345.79;105315;1260;108377;-68
2024/01/02 01:35:58;;;;;;;17.50;5.40;;;;;;;5.17;80.25;98345.77;105215;1258;96617;-68
2024/01/02 01:38:26;;;;;;;16.90;5.80;;;;;;;5.18;80.32;98345.90;105309;1267;96550;-68
2024/01/02 01:40:54;;;;;;;18.80;5.40;;;;;;;5.18;80.27;98349.55;105156;1267;109395;-69
2024/01/02 01:43:22;;;;;;;18.10;5.70;;;;;;;5.19;80.42;98346.52;105232;1267;96707;-68
2024/01/02 01:45:50;;;;;;;16.80;5.60;;;;;;;5.21;80.18;98347.82;105036;1265;108400;-69
2024/01/02 01:48:18;;;;;;;20.70;6.40;;;;;;;5.22;80.31;98349.35;105115;1264;97515;-69
2024/01/02 01:50:47;;;;;;;20.10;6.40;;;;;;;5.22;80.14;98347.07;105517;1259;97566;-70
2024/01/02 01:53:16;;;;;;;22.10;7.30;;;;;;;5.22;80.21;98346.34;105536;1259;109507;-70
2024/01/02 01:55:44;;;;;;;16.70;5.40;;;;;;;5.22;80.12;98352.48;105428;1259;96623;-68
2024/01/02 01:58:13;;;;;;;21.40;6.00;;;;;;;5.23;80.24;98354.04;104913;1270;106927;-69
2024/01/02 02:00:41;;;;;;;16.60;5.20;;;;;;;5.24;80.03;98353.27;105380;1257;96619;-69
2024/01/02 02:03:10;;;;;;;19.60;5.70;;;;;;;5.25;80.05;98358.52;105324;1267;97173;-68
2024/01/02 02:05:38;;;;;;;21.40;5.50;;;;;;;5.25;80.10;98360.60;105524;1259;109419;-69
2024/01/02 02:08:06;;;;;;;17.30;6.00;;;;;;;5.24;80.07;98360.63;105492;1260;96616;-67
2024/01/02 02:10:34;;;;;;;16.50;5.00;;;;;;;5.23;80.00;98360.67;105093;1266;108554;-69
2024/01/02 02:13:02;;;;;;;18.80;5.70;;;;;;;5.23;79.75;98361.77;105394;1260;97292;-69
2024/01/02 02:15:30;;;;;;;20.20;5.50;;;;;;;5.22;79.84;98361.27;105164;1259;96542;-69
2024/01/02 02:17:58;;;;;;;16.00;4.90;;;;;;;5.21;79.78;98356.07;105369;1259;109056;-67
2024/01/02 02:20:26;;;;;;;15.90;5.50;;;;;;;5.20;79.80;98353.83;104893;1266;96625;-69
2024/01/02 02:22:54;;;;;;;13.60;4.90;;;;;;;5.19;79.82;98352.67;105307;1264;107454;-68
2024/01/02 02:25:22;;;;;;;17.10;5.10;;;;;;;5.19;79.81;98351.99;105148;1257;96622;-68
2024/01/02 02:27:50;;;;;;;17.70;5.50;;;;;;;5.18;79.77;98354.50;104814;1253;96668;-68
2024/01/02 02:30:18;;;;;;;17.20;5.50;;;;;;;5.18;79.72;98361.32;104778;1270;109485;-69
2024/01/02 02:32:46;;;;;;;17.90;5.50;;;;;;;5.18;79.75;98360.82;105589;1254;96546;-69
2024/01/02 02:35:14;;;;;;;17.10;6.00;;;;;;;5.17;79.71;98359.98;105307;1260;107163;-69
2024/01/02 02:37:42;;;;;;;17.80;6.10;;;;;;;5.17;79.74;98357.34;105422;1259;97560;-69
2024/01/02 02:40:10;;;;;;;18.30;5.90;;;;;;;5.18;79.68;98356.45;105323;1262;96613;-69
2024/01/02 02:42:38;;;;;;;18.50;5.30;;;;;;;5.18;79.65;98359.95;105270;1259;110657;-69
2024/01/02 02:45:07;;;;;;;17.70;5.40;;;;;;;5.18;79.68;98357.14;105548;1259;96693;-68
2024/01/02 02:47:35;;;;;;;16.00;5.10;;;;;;;5.18;79.68;98354.52;105357;1259;106808;-70
2024/01/02 02:50:05;;;;;;;15.10;5.30;;;;;;;5.17;79.60;98348.90;105475;1263;97190;-68
2024/01/02 02:52:33;;;;;;;14.70;4.70;;;;;;;5.17;79.55;98347.70;105321;1258;96543;-68
2024/01/02 02:55:01;;;;;;;18.00;5.00;;;;;;;5.17;79.53;98347.85;105376;1260;107992;-69
2024/01/02 02:57:29;;;;;;;18.30;5.10;;;;;;;5.18;79.44;98347.67;105370;1260;96686;-69
2024/01/02 02:59:57;;;;;;;16.20;5.30;;;;;;;5.17;79.39;98347.38;105162;1260;107706;-68
2024/01/02 03:02:27;;;;;;;17.00;5.40;;;;;;;5.17;79.44;98349.80;105322;1259;96635;-67
2024/01/02 03:04:55;;;;;;;14.20;4.40;;;;;;;5.17;79.37;98352.44;105413;1258;96622;-69
2024/01/02 03:07:24;;;;;;;14.30;4.40;;;;;;;5.18;79.43;98350.83;105301;1259;110192;-68
2024/01/02 03:09:51;;;;;;;16.00;4.90;;;;;;;5.19;79.46;98353.92;105274;1267;96668;-68
2024/01/02 03:12:19;;;;;;;13.50;4.00;;;;;;;5.19;79.36;98353.72;105168;1258;105846;-67
2024/01/02 03:14:47;;;;;;;15.40;4.50;;;;;;;5.20;79.30;98351.73;104958;1259;96681;-68
2024/01/02 03:17:15;;;;;;;16.60;6.10;;;;;;;5.22;79.36;98348.45;105425;1267;97847;-67
2024/01/02 03:19:43;;;;;;;15.00;4.10;;;;;;;5.24;79.22;98341.88;104678;1263;109357;-68
2024/01/02 03:22:11;;;;;;;17.20;4.80;;;;;;;5.25;79.29;98341.08;105389;1254;96530;-69
2024/01/02 03:24:39;;;;;;;13.40;4.60;;;;;;;5.26;79.12;98343.46;105166;1260;107620;-69
2024/01/02 03:27:07;;;;;;;14.90;4.40;;;;;;;5.28;79.20;98340.91;105621;1254;96626;-68
2024/01/02 03:29:34;;;;;;;15.50;4.70;;;;;;;5.29;79.13;98342.61;105128;1256;96616;-69
2024/01/02 03:32:02;;;;;;;15.60;4.50;;;;;;;5.30;79.18;98335.86;104676;1267;108495;-68
2024/01/02 03:34:31;;;;;;;11.00;4.20;;;;;;;5.31;79.10;98331.72;104969;1270;96605;-68
2024/01/02 03:36:58;;;;;;;13.40;4.20;;;;;;;5.32;79.06;98334.10;105305;1259;107287;-67
2024/01/02 03:39:26;;;;;;;14.20;4.90;;;;;;;5.32;79.19;98335.17;105405;1266;96626;-68
2024/01/02 03:41:54;;;;;;;11.10;3.60;;;;;;;5.33;79.05;98336.02;105397;1260;96532;-68
2024/01/02 03:44:22;;;;;;;14.50;3.90;;;;;;;5.33;79.12;98335.45;105069;1267;110033;-68
2024/01/02 03:46:50;;;;;;;10.60;4.00;;;;;;;5.33;78.93;98337.72;105404;1267;96664;-70
2024/01/02 03:49:18;;;;;;;16.70;5.20;;;;;;;5.33;78.92;98340.92;104855;1255;107321;-68
2024/01/02 03:51:46;;;;;;;12.30;4.20;;;;;;;5.33;78.99;98340.73;104959;1267;96615;-69
2024/01/02 03:54:14;;;;;;;13.10;4.20;;;;;;;5.34;79.03;98340.68;105389;1256;97856;-68
2024/01/02 03:56:41;;;;;;;13.60;4.30;;;;;;;5.34;78.94;98339.09;105326;1267;109898;-68
2024/01/02 03:59:09;;;;;;;13.80;4.30;;;;;;;5.34;78.81;98341.36;105135;1268;96662;-69
2024/01/02 04:01:44;;;;;;;17.30;5.10;;;;;;;5.34;78.88;98338.92;105108;1266;107098;-69
2024/01/02 04:04:12;;;;;;;16.00;4.50;;;;;;;5.34;78.93;98338.56;105258;1258;96660;-69
2024/01/02 04:06:39;;;;;;;16.20;4.30;;;;;;;5.33;78.70;98339.31;105086;1267;96598;-69
2024/01/02 04:09:08;;;;;;;15.00;5.30;;;;;;;5.32;78.91;98340.26;105355;1258;109624;-68
2024/01/02 04:11:36;;;;;;;17.20;4.70;;;;;;;5.32;78.92;98342.34;105287;1257;97544;-69
2024/01/02 04:14:04;;;;;;;14.00;4.40;;;;;;;5.32;78.76;98342.19;105287;1259;107676;-69
2024/01/02 04:16:32;;;;;;;11.90;4.00;;;;;;;5.33;78.75;98344.77;105044;1266;97935;-69
2024/01/02 04:18:59;;;;;;;13.50;4.10;;;;;;;5.33;78.77;98344.91;105361;1254;96511;-68
2024/01/02 04:21:27;;;;;;;10.60;4.10;;;;;;;5.34;78.59;98343.30;105129;1267;110125;-69
2024/01/02 04:23:55;;;;;;;11.30;4.10;;;;;;;5.34;78.71;98341.87;104603;1269;96618;-68
2024/01/02 04:26:23;;;;;;;12.70;4.20;;;;;;;5.35;78.53;98343.43;104939;1260;108252;-68
2024/01/02 04:28:51;;;;;;;12.80;4.20;;;;;;;5.35;78.45;98341.69;105346;1258;96613;-68
2024/01/02 04:31:19;;;;;;;14.00;3.90;;;;;;;5.35;78.59;98341.30;104646;1260;96609;-67
2024/01/02 04:33:47;;;;;;;14.40;4.70;;;;;;;5.36;78.61;98338.46;104841;1260;110618;-69
2024/01/02 04:36:15;;;;;;;14.60;4.10;;;;;;;5.35;78.46;98334.80;105496;1267;96824;-69
2024/01/02 04:38:43;;;;;;;14.10;4.20;;;;;;;5.34;78.34;98333.62;105341;1260;107630;-69
2024/01/02 04:41:12;;;;;;;17.30;4.80;;;;;;;5.34;78.48;98333.98;105408;1267;96636;-69
2024/01/02 04:43:40;;;;;;;13.90;4.50;;;;;;;5.32;78.45;98336.41;105761;1257;96589;-67
2024/01/02 04:46:09;;;;;;;13.50;3.90;;;;;;;5.29;78.39;98333.77;108511;1254;111096;-68
2024/01/02 04:48:37;;;;;;;16.10;4.40;;;;;;;5.27;78.41;98332.70;105576;1260;97945;-67
2024/01/02 04:51:05;;;;;;;14.20;4.50;;;;;;;5.25;78.31;98331.21;105125;1264;107675;-68
2024/01/02 04:53:33;;;;;;;14.90;4.30;;;;;;;5.23;78.37;98335.57;104525;1270;96763;-68
2024/01/02 04:56:01;;;;;;;15.40;4.70;;;;;;;5.19;78.32;98336.85;105347;1254;96513;-69
2024/01/02 04:58:29;;;;;;;14.70;4.40;;;;;;;5.14;78.23;98340.52;105423;1255;108317;-69
2024/01/02 05:00:56;;;;;;;17.60;4.70;;;;;;;5.10;78.14;98353.27;105384;1255;97423;-69
2024/01/02 05:03:24;;;;;;;9.90;3.80;;;;;;;5.01;78.09;98363.42;105355;1268;107739;-69
2024/01/02 05:05:52;;;;;;;12.10;3.50;;;;;;;4.88;78.00;98372.63;106614;1257;96676;-68
2024/01/02 05:08:21;;;;;;;8.20;3.40;;;;;;;4.78;78.01;98379.77;104913;1270;96615;-68
2024/01/02 05:10:49;;;;;;;7.70;3.50;;;;;;;4.68;77.91;98378.59;105388;1254;109821;-69
2024/01/02 05:13:16;;;;;;;8.10;3.60;;;;;;;4.57;77.93;98376.73;105145;1266;97538;-68
2024/01/02 05:15:44;;;;;;;12.10;4.20;;;;;;;4.46;77.89;98374.58;105110;1258;107617;-68
2024/01/02 05:18:12;;;;;;;11.50;4.00;;;;;;;4.39;77.99;98377.31;106687;1257;96635;-68
2024/01/02 05:20:40;;;;;;;10.70;3.90;;;;;;;4.34;78.12;98381.27;105799;1257;96692;-68
2024/01/02 05:23:08;;;;;;;9.50;4.60;;;;;;;4.29;78.02;98382.59;104579;1260;110890;-68
2024/01/02 05:25:43;;;;;;;10.70;4.60;;;;;;;4.28;78.06;98378.12;104894;1267;97736;-68
2024/01/02 05:28:11;;;;;;;12.30;4.60;;;;;;;4.27;78.08;98381.83;105491;1264;108003;-69
2024/01/02 05:30:39;;;;;;;14.50;5.20;;;;;;;4.26;78.05;98381.06;104860;1258;96621;-69
2024/01/02 05:33:07;;;;;;;17.50;4.90;;;;;;;4.24;78.10;98384.33;105349;1254;96520;-68
2024/01/02 05:35:34;;;;;;;15.40;5.60;;;;;;;4.23;78.16;98390.16;105151;1264;109998;-68
2024/01/02 05:38:03;;;;;;;18.70;6.10;;;;;;;4.22;78.11;98386.36;105584;1258;98063;-67
2024/01/02 05:40:31;;;;;;;18.10;6.20;;;;;;;4.20;78.17;98390.30;106649;1257;107092;-68
2024/01/02 05:42:59;;;;;;;20.80;5.80;;;;;;;4.19;78.17;98390.55;105389;1254;97573;-72
2024/01/02 05:45:27;;;;;;;18.40;7.10;;;;;;;4.20;78.14;98388.92;105079;1258;96530;-69
2024/01/02 05:47:55;;;;;;;19.00;7.50;;;;;;;4.20;78.25;98390.66;105427;1257;109672;-69
2024/01/02 05:50:23;;;;;;;21.70;6.50;;;;;;;4.21;78.23;98394.46;105609;1267;97418;-69
2024/01/02 05:52:51;;;;;;;18.90;6.50;;;;;;;4.21;78.09;98394.31;108464;1254;107475;-69
2024/01/02 05:55:19;;;;;;;21.20;7.20;;;;;;;4.21;78.13;98393.45;108513;1254;94585;-70
2024/01/02 05:57:47;;;;;;;20.00;8.30;;;;;;;4.23;78.31;98394.73;108664;1254;94526;-69
2024/01/02 06:00:15;;;;;;;20.30;8.30;;;;;;;4.25;78.25;98393.91;108585;1254;111037;-67
2024/01/02 06:02:43;;;;;;;23.30;8.80;;;;;;;4.26;78.07;98397.70;108633;1254;95511;-67
2024/01/02 06:05:11;;;;;;;18.40;7.80;;;;;;;4.28;78.10;98400.59;108630;1254;107146;-68
2024/01/02 06:07:39;;;;;;;21.30;9.20;;;;;;;4.29;78.22;98397.30;108630;1254;94787;-68
2024/01/02 06:10:07;;;;;;;22.60;7.40;;;;;;;4.34;78.22;98398.33;108618;1255;94312;-68
2024/01/02 06:12:35;;;;;;;19.30;8.00;;;;;;;4.36;78.20;98395.89;108624;1254;109396;-68
2024/01/02 06:15:03;;;;;;;20.30;7.50;;;;;;;4.40;78.23;98397.11;108661;1254;95551;-68
2024/01/02 06:17:31;;;;;;;21.90;8.10;;;;;;;4.41;78.02;98398.21;108619;1254;107627;-68
2024/01/02 06:19:59;;;;;;;23.50;7.10;;;;;;;4.42;77.99;98400.30;105413;1257;96702;-69
2024/01/02 06:22:28;;;;;;;19.90;8.20;;;;;;;4.41;78.08;98398.11;107583;1257;96619;-69
2024/01/02 06:24:56;;;;;;;19.40;7.30;;;;;;;4.42;78.12;98398.92;105434;1254;109949;-70
2024/01/02 06:27:24;;;;;;;44.50;24.80;;;;;;;4.45;78.11;98398.53;106023;1254;97225;-70
2024/01/02 06:29:51;;;;;;;35.00;20.20;;;;;;;4.44;78.05;98400.86;105712;1254;107943;-69
2024/01/02 06:32:19;;;;;;;27.00;16.10;;;;;;;4.44;78.13;98401.55;105261;1257;96628;-68
2024/01/02 06:34:47;;;;;;;22.70;10.00;;;;;;;4.45;78.31;98398.52;105363;1257;96699;-70
2024/01/02 06:37:15;;;;;;;22.00;8.00;;;;;;;4.49;78.38;98395.13;105311;1269;109406;-76
2024/01/02 06:39:43;;;;;;;18.80;7.60;;;;;;;4.53;78.38;98392.45;105308;1264;97870;-78
2024/01/02 06:42:10;;;;;;;16.70;6.10;;;;;;;4.57;78.40;98394.48;105598;1254;108533;-73
2024/01/02 06:44:38;;;;;;;16.60;5.50;;;;;;;4.60;78.48;98392.54;105308;1260;96744;-73
2024/01/02 06:47:06;;;;;;;22.10;8.00;;;;;;;4.62;78.47;98392.63;105409;1257;97544;-73
2024/01/02 06:49:34;;;;;;;29.10;11.10;;;;;;;4.62;78.33;98393.47;105400;1254;109448;-68
2024/01/02 06:52:02;;;;;;;41.30;14.50;;;;;;;4.63;78.36;98392.39;105054;1254;96585;-69
2024/01/02 06:54:30;;;;;;;34.50;13.40;;;;;;;4.63;78.38;98396.63;105106;1269;107643;-70
2024/01/02 06:56:58;;;;;;;21.60;8.60;;;;;;;4.64;78.46;98397.61;104917;1257;96708;-70
2024/01/02 06:59:26;;;;;;;22.80;9.00;;;;;;;4.66;78.42;98399.64;105345;1257;97932;-68
2024/01/02 07:01:54;;;;;;;22.00;8.40;;;;;;;4.66;78.42;98398.36;105144;1257;109607;-69
2024/01/02 07:04:22;;;;;;;37.50;16.00;;;;;;;4.67;78.44;98399.55;105294;1254;96523;-69
2024/01/02 07:06:50;;;;;;;28.80;10.90;;;;;;;4.68;78.40;98396.19;105637;1253;107165;-70
2024/01/02 07:09:19;;;;;;;34.40;12.80;;;;;;;4.70;78.40;98397.29;105522;1258;96673;-70
2024/01/02 07:11:47;;;;;;;29.00;11.60;;;;;;;4.71;78.47;98392.41;105641;1258;96696;-69
2024/01/02 07:14:16;;;;;;;43.80;17.30;;;;;;;4.74;78.53;98390.86;105621;1254;109932;-70
2024/01/02 07:16:43;;;;;;;25.30;8.60;;;;;;;4.76;78.40;98387.95;105452;1268;96568;-70
2024/01/02 07:19:11;;;;;;;22.70;7.20;;;;;;;4.78;78.43;98384.14;105188;1272;107339;-69
2024/01/02 07:21:39;;;;;;;18.80;6.70;;;;;;;4.80;78.40;98386.52;105005;1257;96636;-70
2024/01/02 07:24:07;;;;;;;17.60;5.60;;;;;;;4.81;78.54;98389.39;105060;1260;96658;-69
2024/01/02 07:26:35;;;;;;;17.40;5.50;;;;;;;4.84;78.51;98382.39;105315;1254;109988;-70
2024/01/02 07:29:03;;;;;;;16.20;5.00;;;;;;;4.87;78.48;98384.85;105234;1258;97914;-69
2024/01/02 07:31:32;;;;;;;13.10;4.90;;;;;;;4.89;78.44;98388.23;105158;1261;107098;-69
2024/01/02 07:34:00;;;;;;;15.10;5.00;;;;;;;4.89;78.38;98388.21;105262;1257;96687;-72
2024/01/02 07:36:28;;;;;;;17.00;5.70;;;;;;;4.90;78.43;98386.20;105499;1254;96606;-69
2024/01/02 07:38:55;;;;;;;14.10;4.60;;;;;;;4.91;78.40;98381.09;105334;1254;110052;-69
2024/01/02 07:41:23;;;;;;;15.80;4.10;;;;;;;4.90;78.37;98378.98;105544;1257;96627;-69
2024/01/02 07:43:52;;;;;;;14.60;4.60;;;;;;;4.91;78.49;98379.14;105373;1266;108677;-70
2024/01/02 07:46:20;;;;;;;11.30;4.00;;;;;;;4.90;78.45;98375.31;105304;1260;96607;-70
2024/01/02 07:48:48;;;;;;;11.80;3.80;;;;;;;4.92;78.54;98377.14;105365;1267;96594;-70
2024/01/02 07:51:15;;;;;;;11.80;4.10;;;;;;;4.94;78.48;98378.80;105361;1254;109975;-70
2024/01/02 07:53:43;;;;;;;15.70;4.60;;;;;;;4.96;78.48;98383.27;105244;1255;96699;-70
2024/01/02 07:56:11;;;;;;;16.70;5.10;;;;;;;4.98;78.56;98377.52;105389;1267;107710;-70
2024/01/02 07:58:39;;;;;;;12.90;4.10;;;;;;;5.00;78.51;98382.10;105516;1254;97386;-70
2024/01/02 08:01:07;;;;;;;11.30;4.10;;;;;;;5.02;78.60;98382.91;105378;1254;97534;-70
2024/01/02 08:03:35;;;;;;;16.30;5.10;;;;;;;5.03;78.46;98384.06;105115;1266;109485;-69
2024/01/02 08:06:03;;;;;;;14.20;4.70;;;;;;;5.03;78.48;98381.07;105404;1257;96705;-70
2024/01/02 08:08:32;;;;;;;13.10;4.30;;;;;;;5.03;78.68;98383.89;105385;1260;107257;-71
2024/01/02 08:11:00;;;;;;;14.00;4.50;;;;;;;5.02;78.48;98384.27;105130;1257;97977;-68
2024/01/02 08:13:27;;;;;;;13.20;4.90;;;;;;;5.04;78.58;98387.68;105579;1257;96642;-74
2024/01/02 08:15:55;;;;;;;11.80;4.80;;;;;;;5.07;78.68;98387.16;105587;1254;109833;-75
2024/01/02 08:18:23;;;;;;;19.40;5.50;;;;;;;5.09;78.65;98384.20;105688;1258;96651;-70
2024/01/02 08:20:51;;;;;;;12.60;4.20;;;;;;;5.12;78.56;98382.30;106881;1259;107694;-69
2024/01/02 08:23:19;;;;;;;15.60;5.30;;;;;;;5.14;78.49;98381.13;105120;1254;96613;-69
2024/01/02 08:25:47;;;;;;;17.50;6.40;;;;;;;5.16;78.51;98382.02;105479;1257;96546;-70
2024/01/02 08:28:15;;;;;;;17.20;6.10;;;;;;;5.18;78.54;98380.48;105310;1254;109427;-70
2024/01/02 08:30:43;;;;;;;18.10;6.80;;;;;;;5.20;78.49;98381.93;105086;1258;96732;-69
2024/01/02 08:33:11;;;;;;;23.40;5.60;;;;;;;5.23;78.54;98386.55;105253;1257;107495;-70
2024/01/02 08:35:39;;;;;;;11.90;4.30;;;;;;;5.25;78.53;98383.97;105349;1260;96712;-73
2024/01/02 08:38:06;;;;;;;13.40;4.00;;;;;;;5.28;78.42;98390.65;105491;1256;96686;-76
2024/01/02 08:40:36;;;;;;;16.10;4.70;;;;;;;5.30;78.50;98389.46;105175;1256;110636;-76
2024/01/02 08:43:04;;;;;;;13.40;4.60;;;;;;;5.33;78.44;98394.73;105249;1257;96600;-75
2024/01/02 08:45:35;;;;;;;13.30;4.60;;;;;;;5.36;78.62;98399.64;105499;1254;107223;-74
2024/01/02 08:48:04;;;;;;;13.80;4.30;;;;;;;5.39;78.35;98400.51;105342;1257;96599;-77
2024/01/02 08:50:32;;;;;;;10.50;3.20;;;;;;;5.43;78.64;98403.61;105233;1260;97532;-79
2024/01/02 08:53:00;;;;;;;12.70;4.00;;;;;;;5.46;78.55;98406.54;105203;1258;111007;-79
2024/01/02 08:55:46;;;;;;;17.20;4.90;;;;;;;5.51;78.62;98406.41;105309;1260;96545;-79
2024/01/02 08:58:15;;;;;;;12.30;4.20;;;;;;;5.54;78.55;98406.80;105500;1270;108015;-76
2024/01/02 09:00:43;;;;;;;12.70;4.80;;;;;;;5.56;78.48;98407.52;105350;1257;96715;-77
2024/01/02 09:03:11;;;;;;;15.20;4.80;;;;;;;5.59;78.69;98405.22;105364;1255;96709;-77
2024/01/02 09:05:39;;;;;;;16.50;5.30;;;;;;;5.64;78.48;98408.98;105524;1257;109790;-77
2024/01/02 09:08:07;;;;;;;12.50;4.40;;;;;;;5.67;78.48;98410.90;105478;1257;97934;-78
2024/01/02 09:10:36;;;;;;;9.50;3.80;;;;;;;5.70;78.42;98407.55;105552;1259;107572;-74
2024/01/02 09:13:03;;;;;;;15.40;4.80;;;;;;;5.74;78.61;98406.42;105313;1258;96715;-73
2024/01/02 09:15:31;;;;;;;19.10;5.50;;;;;;;5.77;78.46;98407.45;105395;1257;96625;-72
2024/01/02 09:17:59;;;;;;;19.30;5.40;;;;;;;5.79;78.46;98404.67;105200;1253;109556;-72
2024/01/02 09:20:27;;;;;;;19.60;7.00;;;;;;;5.82;78.47;98402.73;105347;1260;96596;-73
2024/01/02 09:22:55;;;;;;;15.90;5.60;;;;;;;5.86;78.60;98400.59;105339;1260;106700;-74
2024/01/02 09:25:27;;;;;;;16.10;5.80;;;;;;;5.88;78.41;98403.09;105400;1258;96623;-73
2024/01/02 09:27:58;;;;;;;14.00;5.40;;;;;;;5.91;78.46;98401.09;105376;1257;96575;-73
2024/01/02 09:30:26;;;;;;;15.60;5.50;;;;;;;5.93;78.03;98397.98;105411;1254;110260;-74
2024/01/02 09:32:54;;;;;;;14.30;4.90;;;;;;;5.94;78.21;98398.77;105284;1261;96717;-77
2024/01/02 09:35:22;;;;;;;14.50;5.00;;;;;;;5.96;78.37;98392.86;105467;1270;107079;-75
2024/01/02 09:37:51;;;;;;;11.00;4.20;;;;;;;5.99;78.43;98389.52;105257;1268;96635;-74
2024/01/02 09:40:28;;;;;;;13.80;4.20;;;;;;;6.02;78.27;98386.58;105408;1253;98303;-70
2024/01/02 09:43:04;;;;;;;14.80;4.90;;;;;;;6.06;78.34;98389.80;105395;1254;109415;-72
2024/01/02 09:46:02;;;;;;;13.40;4.80;;;;;;;6.09;78.49;98390.11;105277;1254;98328;-72
2024/01/02 09:48:52;;;;;;;15.70;4.90;;;;;;;6.14;78.47;98389.09;105184;1257;107650;-73
2024/01/02 09:51:51;;;;;;;16.20;4.10;;;;;;;6.17;78.38;98384.52;105243;1254;96693;-70
2024/01/02 09:54:40;;;;;;;14.20;5.10;;;;;;;6.20;78.19;98386.94;105408;1253;96616;-73
2024/01/02 09:57:22;;;;;;;16.90;5.10;;;;;;;6.26;78.55;98384.66;105329;1253;108105;-73
2024/01/02 10:00:20;;;;;;;18.50;5.00;;;;;;;6.32;78.40;98384.05;105018;1257;97538;-72
2024/01/02 10:03:07;;;;;;;21.70;5.10;;;;;;;6.35;78.46;98382.27;105186;1254;107482;-73
2024/01/02 10:05:37;;;;;;;16.30;4.70;;;;;;;6.38;78.38;98378.41;105278;1259;96625;-74
2024/01/02 10:08:38;;;;;;;10.50;3.60;;;;;;;6.43;78.29;98369.63;105198;1259;96618;-76
2024/01/02 10:11:22;;;;;;;13.50;5.20;;;;;;;6.49;78.13;98371.13;105455;1254;110303;-73
2024/01/02 10:13:55;;;;;;;12.80;4.20;;;;;;;6.56;78.17;98366.98;105305;1258;96520;-74
2024/01/02 10:17:13;;;;;;;14.40;3.80;;;;;;;6.62;78.32;98364.67;105291;1254;108019;-73
2024/01/02 10:19:51;;;;;;;15.90;5.00;;;;;;;6.68;78.15;98360.69;104922;1264;97662;-71
2024/01/02 10:22:28;;;;;;;14.90;4.60;;;;;;;6.73;78.05;98359.70;104881;1265;97347;-72
2024/01/02 10:25:10;;;;;;;14.80;4.70;;;;;;;6.74;77.91;98355.38;104989;1254;109380;-72
2024/01/02 10:27:58;;;;;;;12.90;4.00;;;;;;;6.75;77.75;98352.33;105004;1259;96645;-71
2024/01/02 10:30:34;;;;;;;10.50;3.80;;;;;;;6.76;77.86;98348.72;105351;1254;107226;-73
2024/01/02 10:33:02;;;;;;;11.10;3.90;;;;;;;6.77;77.93;98352.90;105321;1257;96712;-70
2024/01/02 10:35:49;;;;;;;15.70;5.10;;;;;;;6.76;77.96;98351.89;104992;1253;97546;-70
2024/01/02 10:38:42;;;;;;;13.90;3.90;;;;;;;6.74;77.87;98350.78;104933;1254;109978;-68
2024/01/02 10:41:25;;;;;;;11.20;3.90;;;;;;;6.76;77.93;98345.88;105478;1257;96706;-77
2024/01/02 10:44:22;;;;;;;14.30;4.60;;;;;;;6.78;77.85;98341.50;105162;1258;107704;-75
2024/01/02 10:47:05;;;;;;;19.40;5.70;;;;;;;6.79;77.80;98339.90;105480;1261;97531;-74
2024/01/02 10:49:40;;;;;;;17.70;4.90;;;;;;;6.78;77.64;98335.85;105178;1256;96629;-74
2024/01/02 10:52:23;;;;;;;15.00;4.00;;;;;;;6.78;77.64;98329.05;105521;1253;110611;-76
2024/01/02 10:55:14;;;;;;;12.10;3.80;;;;;;;6.79;77.67;98328.61;105412;1253;96616;-73
2024/01/02 10:57:58;;;;;;;13.40;4.80;;;;;;;6.81;77.62;98324.23;105286;1267;107711;-74
2024/01/02 11:03:57;;;;;;;15.10;3.80;;;;;;;6.89;77.49;98318.22;102179;1291;636056;-74
2024/01/02 11:06:45;;;;;;;10.80;3.60;;;;;;;6.91;77.60;98318.67;104638;1272;94333;-74
2024/01/02 11:09:35;;;;;;;9.50;3.70;;;;;;;6.93;77.36;98314.23;104426;1273;94412;-73
2024/01/02 11:12:06;;;;;;;16.90;4.70;;;;;;;6.97;77.41;98309.70;104456;1272;107151;-73
2024/01/02 11:14:45;;;;;;;14.70;4.60;;;;;;;6.99;77.47;98306.25;104620;1272;95527;-73
2024/01/02 11:17:15;;;;;;;15.00;5.10;;;;;;;7.03;77.66;98298.58;104726;1271;144366;-73
2024/01/02 11:19:56;;;;;;;16.50;5.30;;;;;;;7.08;77.39;98298.08;104534;1266;94299;-73
2024/01/02 11:22:33;;;;;;;16.20;6.40;;;;;;;7.12;77.46;98296.39;104489;1269;95304;-73
2024/01/02 11:25:04;;;;;;;18.40;6.20;;;;;;;7.13;77.33;98296.13;104742;1279;107289;-73
2024/01/02 11:27:34;;;;;;;15.40;5.20;;;;;;;7.13;77.19;98290.27;104673;1270;95802;-74
2024/01/02 11:30:05;;;;;;;17.30;5.50;;;;;;;7.15;77.24;98285.02;104600;1266;107674;-72
2024/01/02 11:33:07;;;;;;;15.30;4.40;;;;;;;7.16;77.17;98281.65;104811;1269;96161;-67
2024/01/02 11:35:54;;;;;;;14.40;4.40;;;;;;;7.17;77.17;98276.44;104019;1279;95285;-69
2024/01/02 11:38:30;;;;;;;20.10;4.70;;;;;;;7.17;77.13;98273.44;104766;1268;109025;-70
2024/01/02 11:41:19;;;;;;;15.10;4.50;;;;;;;7.16;76.96;98275.98;104797;1269;95271;-69